Padborg, Denmark
Current Conditions -  °F | °C
As of 3:20 PM on Wednesday 22 Oct 2014 (Local Time) from ETGG Reporting Station
Scattered Clouds Scattered Clouds  
Wind Chill: 59°   Ceiling: Unl
Heat Index: 59°   Visibility: 6mi
Dew Point: 50°   Wind: 20mph
Humidity: 72%   Direction: 320°NW
Pressure: 29.8"   Gusts: NA
Location:  54.83°N, 9.36°E
Report Text: ETGG 221320Z 32017KT 9999 FEW025 SCT230 15/10 Q1009 BLU+
Loading
Personal Weather Stations






























Interactive Weather Map
Tropical Storm Tracking
New forecast layout! Learn more

10-Day Weather Forecast

Advertisements
Track Severe Weather on mobile